Terminal Aerodrome Forecast
Issued by NWS Tulsa, OK

Home | Current Version | Previous Version | Text Only | Print | Product List | Glossary On
Versions: 1 2 3 4 5 6 7 8 9 10 11 12 13 14
741
FTUS44 KTSA 241120
TAFFSM
TAF
KFSM 241120Z 2412/2512 09004KT P6SM SKC
     FM241600 14007KT P6SM SCT040
     FM250100 10004KT P6SM FEW050 SCT250=

USA.gov is the U.S. government's official web portal to all federal, state and local government web resources and services.